KMWC/MWC METAR and TAF weather

Enter ICAO airport designator
Station Type Date Time Source
KMWC METAR 2020/04/03 06:55 UTC NOAA

KMWC 030655Z AUTO 00000KT 10SM BKN110 05/00 A3011 RMK AO2


Station Type Date Time Source
KMWC Decoded METAR 2020/04/03 06:55 UTC NOAA

Milwaukee / Timmerman, WI, United States (KMWC) 43-07N 088-02W
Apr 03, 2020 - 02:55 AM EDT / 2020.04.03 0655 UTC
Wind: Calm:0
Visibility: 10 mile(s):0
Sky conditions: mostly cloudy
Temperature: 41 F (5 C)
Dew Point: 32 F (0 C)
Relative Humidity: 70%
Pressure (altimeter): 30.11 in. Hg (1019 hPa)
ob: KMWC 030655Z AUTO 00000KT 10SM BKN110 05/00 A3011 RMK AO2
cycle: 7

Station Type Date Time Source
KMWC TAF UTC NOAA

Error!

Example: see airport list